Terminal Aerodrome Forecast
Issued by NWS Chicago, IL

Home | Current Version | Previous Version | Text Only | Print | Product List | Glossary On
Versions: 1 2 3 4 5 6 7 8 9 10 11 12 13 14 15 16 17 18 19 20 21 22 23 24 25
395
FTUS43 KLOT 301141
TAFRFD
TAF
KRFD 301141Z 3012/3112 27008KT P6SM SCT090
     FM301500 26014G22KT P6SM BKN060
     FM302000 26016G24KT P6SM VCSH BKN070
     FM310000 26008KT P6SM SCT100=

USA.gov is the U.S. government's official web portal to all federal, state and local government web resources and services.